Terminal Aerodrome Forecast
Issued by NWS Wichita, KS

Home | Current Version | Previous Version | Text Only | Print | Product List | Glossary On
Versions: 1 2 3 4 5 6 7 8 9 10 11 12 13 14 15 16 17 18 19
000
FTUS43 KICT 220132 AAA
TAFICT
TAF AMD
KICT 220132Z 2202/2224 19011KT P6SM VCTS SCT060 BKN100CB
      TEMPO 2202/2203 VRB25G40KT 2SM +TSRA
     FM221200 02015G22KT P6SM VCSH SCT015 BKN050
     FM221600 02015G22KT P6SM SKC=

USA.gov is the U.S. government's official web portal to all federal, state and local government web resources and services.